createdAt,value
2023-01-19T12:19:11.270Z,99554.00
2023-01-19T12:21:38.184Z,99550.00
2023-01-19T12:24:35.562Z,99545.00
2023-01-19T12:27:13.159Z,99555.00
2023-01-19T12:29:41.368Z,99555.00
2023-01-19T12:32:14.405Z,99553.00
2023-01-19T12:34:42.394Z,99555.00
2023-01-19T12:37:28.576Z,99555.00
2023-01-19T12:40:22.193Z,99562.00
2023-01-19T12:43:04.568Z,99568.00
2023-01-19T12:45:50.755Z,99566.00
2023-01-19T12:48:27.494Z,99562.00
2023-01-19T12:50:57.024Z,99564.00
2023-01-19T12:53:38.714Z,99568.00
2023-01-19T12:56:24.032Z,99568.00
2023-01-19T12:59:03.319Z,99564.00
2023-01-19T13:02:08.347Z,99566.00
2023-01-19T13:04:44.255Z,99575.00
2023-01-19T13:07:29.137Z,99563.00
2023-01-19T13:09:57.010Z,99568.00
2023-01-19T13:12:25.288Z,99571.00
2023-01-19T13:15:12.166Z,99580.00
2023-01-19T13:17:51.230Z,99577.00
2023-01-19T13:20:21.193Z,99576.00
2023-01-19T13:22:50.876Z,99581.00
2023-01-19T13:25:35.590Z,99576.00
2023-01-19T13:28:08.303Z,99576.00
2023-01-19T13:30:36.506Z,99581.00
2023-01-19T13:33:14.445Z,99582.00
2023-01-19T13:35:50.152Z,99573.00
2023-01-19T13:38:17.057Z,99585.00
2023-01-19T13:40:44.696Z,99587.00
2023-01-19T13:43:19.457Z,99591.00
2023-01-19T13:45:53.355Z,99600.00
2023-01-19T13:48:29.822Z,99603.00
2023-01-19T13:51:13.772Z,99609.00
2023-01-19T13:54:01.671Z,99613.00
2023-01-19T13:56:34.309Z,99624.00
2023-01-19T13:59:12.554Z,99619.00
2023-01-19T14:01:44.542Z,99632.00
2023-01-19T14:04:31.503Z,99634.00
2023-01-19T14:07:03.988Z,99637.00
2023-01-19T14:09:31.080Z,99632.00
2023-01-19T14:12:07.905Z,99640.00
2023-01-19T14:14:34.731Z,99646.00
2023-01-19T14:17:01.607Z,99647.00
2023-01-19T14:19:28.645Z,99646.00
2023-01-19T14:22:20.205Z,99653.00
2023-01-19T14:24:47.507Z,99659.00
2023-01-19T14:27:21.840Z,99664.00
2023-01-19T14:29:53.879Z,99661.00
2023-01-19T14:32:22.592Z,99659.00
2023-01-19T14:35:04.714Z,99670.00
2023-01-19T14:37:47.161Z,99667.00
2023-01-19T14:40:29.509Z,99659.00
2023-01-19T14:43:09.339Z,99675.00
2023-01-19T14:45:47.227Z,99666.00
2023-01-19T14:48:18.200Z,99669.00
2023-01-19T14:50:57.676Z,99670.00
2023-01-19T14:53:29.860Z,99682.00
2023-01-19T14:56:02.185Z,99679.00
2023-01-19T14:59:15.672Z,99689.00
2023-01-19T15:02:00.908Z,99683.00
2023-01-19T15:04:45.890Z,99682.00
2023-01-19T15:07:20.254Z,99699.00
2023-01-19T15:09:47.976Z,99686.00
2023-01-19T15:12:17.562Z,99701.00
2023-01-19T15:14:45.111Z,99709.00
2023-01-19T15:17:17.686Z,99705.00
2023-01-19T15:19:44.525Z,99705.00
2023-01-19T15:22:24.753Z,99714.00
2023-01-19T15:25:02.615Z,99716.00
2023-01-19T15:27:33.478Z,99713.00
2023-01-19T15:30:01.543Z,99713.00
2023-01-19T15:32:28.710Z,99720.00
2023-01-19T15:34:55.677Z,99727.00
2023-01-19T15:37:23.054Z,99730.00
2023-01-19T15:39:56.036Z,99737.00
2023-01-19T15:42:22.904Z,99740.00
2023-01-19T15:45:39.707Z,99742.00
2023-01-19T15:48:18.773Z,99742.00
2023-01-19T15:50:52.191Z,99743.00
